sensor_id;sensor_type;location;lat;lon;timestamp;temperature;humidity
2663;DHT22;49701;48.072;7.800;2022-07-04T00:00:52;22.60;99.90
2663;DHT22;49701;48.072;7.800;2022-07-04T00:03:17;22.70;99.90
2663;DHT22;49701;48.072;7.800;2022-07-04T00:05:43;22.60;99.90
2663;DHT22;49701;48.072;7.800;2022-07-04T00:08:08;22.60;99.90
2663;DHT22;49701;48.072;7.800;2022-07-04T00:10:34;22.70;99.90
2663;DHT22;49701;48.072;7.800;2022-07-04T00:12:59;22.60;99.90
2663;DHT22;49701;48.072;7.800;2022-07-04T00:15:25;22.60;99.90
2663;DHT22;49701;48.072;7.800;2022-07-04T00:17:51;22.60;99.90
2663;DHT22;49701;48.072;7.800;2022-07-04T00:20:17;22.60;99.90
2663;DHT22;49701;48.072;7.800;2022-07-04T00:22:43;22.60;99.90
2663;DHT22;49701;48.072;7.800;2022-07-04T00:25:09;22.60;99.90
2663;DHT22;49701;48.072;7.800;2022-07-04T00:27:35;22.60;99.90
2663;DHT22;49701;48.072;7.800;2022-07-04T00:30:01;22.50;99.90
2663;DHT22;49701;48.072;7.800;2022-07-04T00:32:27;22.50;99.90
2663;DHT22;49701;48.072;7.800;2022-07-04T00:34:52;22.60;99.90
2663;DHT22;49701;48.072;7.800;2022-07-04T00:37:18;22.50;99.90
2663;DHT22;49701;48.072;7.800;2022-07-04T00:39:43;22.50;99.90
2663;DHT22;49701;48.072;7.800;2022-07-04T00:42:09;22.50;99.90
2663;DHT22;49701;48.072;7.800;2022-07-04T00:44:35;22.50;99.90
2663;DHT22;49701;48.072;7.800;2022-07-04T00:47:05;22.50;99.90
2663;DHT22;49701;48.072;7.800;2022-07-04T00:49:31;22.50;99.90
2663;DHT22;49701;48.072;7.800;2022-07-04T00:51:57;22.50;99.90
2663;DHT22;49701;48.072;7.800;2022-07-04T00:54:27;22.40;99.90
2663;DHT22;49701;48.072;7.800;2022-07-04T00:56:53;22.40;99.90
2663;DHT22;49701;48.072;7.800;2022-07-04T00:59:19;22.40;99.90
2663;DHT22;49701;48.072;7.800;2022-07-04T01:01:45;22.40;99.90
2663;DHT22;49701;48.072;7.800;2022-07-04T01:04:11;22.40;99.90
2663;DHT22;49701;48.072;7.800;2022-07-04T01:06:37;22.40;99.90
2663;DHT22;49701;48.072;7.800;2022-07-04T01:09:03;22.40;99.90
2663;DHT22;49701;48.072;7.800;2022-07-04T01:11:29;22.40;99.90
2663;DHT22;49701;48.072;7.800;2022-07-04T01:13:55;22.30;99.90
2663;DHT22;49701;48.072;7.800;2022-07-04T01:16:21;22.30;99.90
2663;DHT22;49701;48.072;7.800;2022-07-04T01:18:49;22.30;99.90
2663;DHT22;49701;48.072;7.800;2022-07-04T01:21:17;22.30;99.90
2663;DHT22;49701;48.072;7.800;2022-07-04T01:23:43;22.40;99.90
2663;DHT22;49701;48.072;7.800;2022-07-04T01:26:08;22.30;99.90
2663;DHT22;49701;48.072;7.800;2022-07-04T01:28:34;22.40;99.90
2663;DHT22;49701;48.072;7.800;2022-07-04T01:31:00;22.30;99.90
2663;DHT22;49701;48.072;7.800;2022-07-04T01:33:26;22.30;99.90
2663;DHT22;49701;48.072;7.800;2022-07-04T01:35:51;22.30;99.90
2663;DHT22;49701;48.072;7.800;2022-07-04T01:38:17;22.30;99.90
2663;DHT22;49701;48.072;7.800;2022-07-04T01:40:42;22.30;99.90
2663;DHT22;49701;48.072;7.800;2022-07-04T01:43:09;22.30;99.90
2663;DHT22;49701;48.072;7.800;2022-07-04T01:45:34;22.20;99.90
2663;DHT22;49701;48.072;7.800;2022-07-04T01:48:05;22.20;99.90
2663;DHT22;49701;48.072;7.800;2022-07-04T01:50:30;22.20;99.90
2663;DHT22;49701;48.072;7.800;2022-07-04T01:52:56;22.10;99.90
2663;DHT22;49701;48.072;7.800;2022-07-04T01:55:22;22.10;99.90
2663;DHT22;49701;48.072;7.800;2022-07-04T01:57:47;22.00;99.90
2663;DHT22;49701;48.072;7.800;2022-07-04T02:00:13;22.10;99.90
2663;DHT22;49701;48.072;7.800;2022-07-04T02:02:57;22.00;99.90
2663;DHT22;49701;48.072;7.800;2022-07-04T02:05:23;21.90;99.90
2663;DHT22;49701;48.072;7.800;2022-07-04T02:07:49;21.90;99.90
2663;DHT22;49701;48.072;7.800;2022-07-04T02:10:15;21.90;99.90
2663;DHT22;49701;48.072;7.800;2022-07-04T02:12:40;21.80;99.90
2663;DHT22;49701;48.072;7.800;2022-07-04T02:15:24;21.80;99.90
2663;DHT22;49701;48.072;7.800;2022-07-04T02:17:50;21.80;99.90
2663;DHT22;49701;48.072;7.800;2022-07-04T02:20:16;21.80;99.90
2663;DHT22;49701;48.072;7.800;2022-07-04T02:22:41;21.80;99.90
2663;DHT22;49701;48.072;7.800;2022-07-04T02:25:08;21.80;99.90
2663;DHT22;49701;48.072;7.800;2022-07-04T02:27:34;21.80;99.90
2663;DHT22;49701;48.072;7.800;2022-07-04T02:29:59;21.80;99.90
2663;DHT22;49701;48.072;7.800;2022-07-04T02:32:25;21.70;99.90
2663;DHT22;49701;48.072;7.800;2022-07-04T02:34:50;21.70;99.90
2663;DHT22;49701;48.072;7.800;2022-07-04T02:37:16;21.70;99.90
2663;DHT22;49701;48.072;7.800;2022-07-04T02:39:42;21.60;99.90
2663;DHT22;49701;48.072;7.800;2022-07-04T02:42:07;21.60;99.90
2663;DHT22;49701;48.072;7.800;2022-07-04T02:44:33;21.60;99.90
2663;DHT22;49701;48.072;7.800;2022-07-04T02:46:58;21.60;99.90
2663;DHT22;49701;48.072;7.800;2022-07-04T02:49:25;21.50;99.90
2663;DHT22;49701;48.072;7.800;2022-07-04T02:51:51;21.60;99.90
2663;DHT22;49701;48.072;7.800;2022-07-04T02:54:16;21.60;99.90
2663;DHT22;49701;48.072;7.800;2022-07-04T02:56:42;21.50;99.90
2663;DHT22;49701;48.072;7.800;2022-07-04T02:59:08;21.50;99.90
2663;DHT22;49701;48.072;7.800;2022-07-04T03:01:33;21.50;99.90
2663;DHT22;49701;48.072;7.800;2022-07-04T03:03:59;21.50;99.90
2663;DHT22;49701;48.072;7.800;2022-07-04T03:06:25;21.50;99.90
2663;DHT22;49701;48.072;7.800;2022-07-04T03:08:50;21.40;99.90
2663;DHT22;49701;48.072;7.800;2022-07-04T03:11:18;21.40;99.90
2663;DHT22;49701;48.072;7.800;2022-07-04T03:13:44;21.40;99.90
2663;DHT22;49701;48.072;7.800;2022-07-04T03:16:10;21.40;99.90
2663;DHT22;49701;48.072;7.800;2022-07-04T03:18:36;21.40;99.90
2663;DHT22;49701;48.072;7.800;2022-07-04T03:21:01;21.40;99.90
2663;DHT22;49701;48.072;7.800;2022-07-04T03:23:30;21.40;99.90
2663;DHT22;49701;48.072;7.800;2022-07-04T03:25:55;21.40;99.90
2663;DHT22;49701;48.072;7.800;2022-07-04T03:28:21;21.40;99.90
2663;DHT22;49701;48.072;7.800;2022-07-04T03:30:47;21.40;99.90
2663;DHT22;49701;48.072;7.800;2022-07-04T03:33:12;21.40;99.90
2663;DHT22;49701;48.072;7.800;2022-07-04T03:35:38;21.30;99.90
2663;DHT22;49701;48.072;7.800;2022-07-04T03:38:03;21.30;99.90
2663;DHT22;49701;48.072;7.800;2022-07-04T03:40:29;21.30;99.90
2663;DHT22;49701;48.072;7.800;2022-07-04T03:42:57;21.20;99.90
2663;DHT22;49701;48.072;7.800;2022-07-04T03:45:24;21.20;99.90
2663;DHT22;49701;48.072;7.800;2022-07-04T03:47:49;21.20;99.90
2663;DHT22;49701;48.072;7.800;2022-07-04T03:50:16;21.10;99.90
2663;DHT22;49701;48.072;7.800;2022-07-04T03:52:41;21.00;99.90
2663;DHT22;49701;48.072;7.800;2022-07-04T03:55:07;21.00;99.90
2663;DHT22;49701;48.072;7.800;2022-07-04T03:57:33;21.00;99.90
2663;DHT22;49701;48.072;7.800;2022-07-04T03:59:59;21.00;99.90
2663;DHT22;49701;48.072;7.800;2022-07-04T04:02:24;20.90;99.90
2663;DHT22;49701;48.072;7.800;2022-07-04T04:04:50;20.90;99.90
2663;DHT22;49701;48.072;7.800;2022-07-04T04:07:34;20.90;99.90
2663;DHT22;49701;48.072;7.800;2022-07-04T04:10:00;20.90;99.90
2663;DHT22;49701;48.072;7.800;2022-07-04T04:12:25;20.90;99.90
2663;DHT22;49701;48.072;7.800;2022-07-04T04:14:51;20.90;99.90
2663;DHT22;49701;48.072;7.800;2022-07-04T04:17:17;20.90;99.90
2663;DHT22;49701;48.072;7.800;2022-07-04T04:19:42;20.90;99.90
2663;DHT22;49701;48.072;7.800;2022-07-04T04:22:08;20.90;99.90
2663;DHT22;49701;48.072;7.800;2022-07-04T04:24:34;20.90;99.90
2663;DHT22;49701;48.072;7.800;2022-07-04T04:27:00;20.90;99.90
2663;DHT22;49701;48.072;7.800;2022-07-04T04:29:25;20.90;99.90
2663;DHT22;49701;48.072;7.800;2022-07-04T04:31:51;20.90;99.90
2663;DHT22;49701;48.072;7.800;2022-07-04T04:34:16;20.90;99.90
2663;DHT22;49701;48.072;7.800;2022-07-04T04:36:42;20.90;99.90
2663;DHT22;49701;48.072;7.800;2022-07-04T04:39:07;20.90;99.90
2663;DHT22;49701;48.072;7.800;2022-07-04T04:41:33;20.80;99.90
2663;DHT22;49701;48.072;7.800;2022-07-04T04:43:58;20.80;99.90
2663;DHT22;49701;48.072;7.800;2022-07-04T04:46:24;20.80;99.90
2663;DHT22;49701;48.072;7.800;2022-07-04T04:48:49;20.70;99.90
2663;DHT22;49701;48.072;7.800;2022-07-04T04:51:15;20.70;99.90
2663;DHT22;49701;48.072;7.800;2022-07-04T04:53:41;20.60;99.90
2663;DHT22;49701;48.072;7.800;2022-07-04T04:56:06;20.60;99.90
2663;DHT22;49701;48.072;7.800;2022-07-04T04:58:32;20.60;99.90
2663;DHT22;49701;48.072;7.800;2022-07-04T05:00:57;20.50;99.90
2663;DHT22;49701;48.072;7.800;2022-07-04T05:03:23;20.40;99.90
2663;DHT22;49701;48.072;7.800;2022-07-04T05:05:48;20.30;99.90
2663;DHT22;49701;48.072;7.800;2022-07-04T05:08:14;20.30;99.90
2663;DHT22;49701;48.072;7.800;2022-07-04T05:10:40;20.30;99.90
2663;DHT22;49701;48.072;7.800;2022-07-04T05:13:05;20.40;99.90
2663;DHT22;49701;48.072;7.800;2022-07-04T05:15:31;20.50;99.90
2663;DHT22;49701;48.072;7.800;2022-07-04T05:17:56;20.60;99.90
2663;DHT22;49701;48.072;7.800;2022-07-04T05:20:22;20.60;99.90
2663;DHT22;49701;48.072;7.800;2022-07-04T05:22:48;20.60;99.90
2663;DHT22;49701;48.072;7.800;2022-07-04T05:25:13;20.60;99.90
2663;DHT22;49701;48.072;7.800;2022-07-04T05:27:39;20.70;99.90
2663;DHT22;49701;48.072;7.800;2022-07-04T05:30:06;20.70;99.90
2663;DHT22;49701;48.072;7.800;2022-07-04T05:32:32;20.80;99.90
2663;DHT22;49701;48.072;7.800;2022-07-04T05:34:57;20.70;99.90
2663;DHT22;49701;48.072;7.800;2022-07-04T05:37:23;20.70;99.90
2663;DHT22;49701;48.072;7.800;2022-07-04T05:39:49;20.80;99.90
2663;DHT22;49701;48.072;7.800;2022-07-04T05:42:16;20.80;99.90
2663;DHT22;49701;48.072;7.800;2022-07-04T05:44:42;20.80;99.90
2663;DHT22;49701;48.072;7.800;2022-07-04T05:47:07;20.80;99.90
2663;DHT22;49701;48.072;7.800;2022-07-04T05:49:33;20.90;99.90
2663;DHT22;49701;48.072;7.800;2022-07-04T05:51:59;20.80;99.90
2663;DHT22;49701;48.072;7.800;2022-07-04T05:54:24;20.90;99.90
2663;DHT22;49701;48.072;7.800;2022-07-04T05:56:50;20.90;99.90
2663;DHT22;49701;48.072;7.800;2022-07-04T05:59:15;21.00;99.90
2663;DHT22;49701;48.072;7.800;2022-07-04T06:01:41;21.00;99.90
2663;DHT22;49701;48.072;7.800;2022-07-04T06:04:07;21.00;99.90
2663;DHT22;49701;48.072;7.800;2022-07-04T06:06:33;21.00;99.90
2663;DHT22;49701;48.072;7.800;2022-07-04T06:08:59;21.10;99.90
2663;DHT22;49701;48.072;7.800;2022-07-04T06:11:25;21.20;99.90
2663;DHT22;49701;48.072;7.800;2022-07-04T06:13:51;21.30;99.90
2663;DHT22;49701;48.072;7.800;2022-07-04T06:16:17;21.40;99.90
2663;DHT22;49701;48.072;7.800;2022-07-04T06:18:43;21.50;99.90
2663;DHT22;49701;48.072;7.800;2022-07-04T06:21:09;21.60;99.90
2663;DHT22;49701;48.072;7.800;2022-07-04T06:23:35;21.70;99.90
2663;DHT22;49701;48.072;7.800;2022-07-04T06:26:01;21.70;99.90
2663;DHT22;49701;48.072;7.800;2022-07-04T06:28:28;21.80;99.90
2663;DHT22;49701;48.072;7.800;2022-07-04T06:30:54;21.80;99.90
2663;DHT22;49701;48.072;7.800;2022-07-04T06:33:20;21.90;99.90
2663;DHT22;49701;48.072;7.800;2022-07-04T06:35:46;21.90;99.90
2663;DHT22;49701;48.072;7.800;2022-07-04T06:38:19;21.90;99.90
2663;DHT22;49701;48.072;7.800;2022-07-04T06:40:46;21.90;99.90
2663;DHT22;49701;48.072;7.800;2022-07-04T06:43:12;21.90;99.90
2663;DHT22;49701;48.072;7.800;2022-07-04T06:45:38;21.90;99.90
2663;DHT22;49701;48.072;7.800;2022-07-04T06:48:05;22.00;99.90
2663;DHT22;49701;48.072;7.800;2022-07-04T06:50:32;22.00;99.90
2663;DHT22;49701;48.072;7.800;2022-07-04T06:53:05;22.00;99.90
2663;DHT22;49701;48.072;7.800;2022-07-04T06:55:31;22.00;99.90
2663;DHT22;49701;48.072;7.800;2022-07-04T06:57:57;22.10;99.90
2663;DHT22;49701;48.072;7.800;2022-07-04T07:00:22;22.10;99.90
2663;DHT22;49701;48.072;7.800;2022-07-04T07:02:48;22.10;99.90
2663;DHT22;49701;48.072;7.800;2022-07-04T07:05:13;22.20;99.90
2663;DHT22;49701;48.072;7.800;2022-07-04T07:07:39;22.30;99.90
2663;DHT22;49701;48.072;7.800;2022-07-04T07:10:05;22.30;99.90
2663;DHT22;49701;48.072;7.800;2022-07-04T07:12:32;22.40;99.90
2663;DHT22;49701;48.072;7.800;2022-07-04T07:14:59;22.60;99.90
2663;DHT22;49701;48.072;7.800;2022-07-04T07:17:25;22.80;99.90
2663;DHT22;49701;48.072;7.800;2022-07-04T07:19:50;22.90;99.90
2663;DHT22;49701;48.072;7.800;2022-07-04T07:22:17;23.00;99.90
2663;DHT22;49701;48.072;7.800;2022-07-04T07:24:43;23.00;99.90
2663;DHT22;49701;48.072;7.800;2022-07-04T07:27:08;23.00;99.90
2663;DHT22;49701;48.072;7.800;2022-07-04T07:29:35;23.00;99.90
2663;DHT22;49701;48.072;7.800;2022-07-04T07:32:01;23.00;99.90
2663;DHT22;49701;48.072;7.800;2022-07-04T07:34:26;23.00;99.90
2663;DHT22;49701;48.072;7.800;2022-07-04T07:36:53;23.00;99.90
2663;DHT22;49701;48.072;7.800;2022-07-04T07:39:19;23.00;99.90
2663;DHT22;49701;48.072;7.800;2022-07-04T07:41:45;23.10;99.90
2663;DHT22;49701;48.072;7.800;2022-07-04T07:44:11;23.20;99.90
2663;DHT22;49701;48.072;7.800;2022-07-04T07:46:37;23.30;99.90
2663;DHT22;49701;48.072;7.800;2022-07-04T07:49:02;23.40;99.90
2663;DHT22;49701;48.072;7.800;2022-07-04T07:51:28;23.40;99.90
2663;DHT22;49701;48.072;7.800;2022-07-04T07:53:54;23.50;99.90
2663;DHT22;49701;48.072;7.800;2022-07-04T07:56:20;23.60;99.90
2663;DHT22;49701;48.072;7.800;2022-07-04T07:58:45;23.90;99.90
2663;DHT22;49701;48.072;7.800;2022-07-04T08:01:11;24.10;99.90
2663;DHT22;49701;48.072;7.800;2022-07-04T08:03:37;24.40;99.90
2663;DHT22;49701;48.072;7.800;2022-07-04T08:06:21;24.70;99.90
2663;DHT22;49701;48.072;7.800;2022-07-04T08:08:46;25.00;99.90
2663;DHT22;49701;48.072;7.800;2022-07-04T08:11:12;25.20;99.90
2663;DHT22;49701;48.072;7.800;2022-07-04T08:13:39;25.40;99.80
2663;DHT22;49701;48.072;7.800;2022-07-04T08:16:05;25.60;99.50
2663;DHT22;49701;48.072;7.800;2022-07-04T08:18:32;25.80;99.30
2663;DHT22;49701;48.072;7.800;2022-07-04T08:20:58;26.00;98.90
2663;DHT22;49701;48.072;7.800;2022-07-04T08:23:24;26.40;98.60
2663;DHT22;49701;48.072;7.800;2022-07-04T08:25:49;26.60;98.20
2663;DHT22;49701;48.072;7.800;2022-07-04T08:28:15;26.80;97.80
2663;DHT22;49701;48.072;7.800;2022-07-04T08:30:40;27.10;96.60
2663;DHT22;49701;48.072;7.800;2022-07-04T08:33:06;27.20;96.30
2663;DHT22;49701;48.072;7.800;2022-07-04T08:35:32;27.30;96.10
2663;DHT22;49701;48.072;7.800;2022-07-04T08:37:58;27.40;95.80
2663;DHT22;49701;48.072;7.800;2022-07-04T08:40:25;27.60;95.60
2663;DHT22;49701;48.072;7.800;2022-07-04T08:42:52;27.60;95.60
2663;DHT22;49701;48.072;7.800;2022-07-04T08:45:25;27.60;95.30
2663;DHT22;49701;48.072;7.800;2022-07-04T08:47:52;27.70;94.80
2663;DHT22;49701;48.072;7.800;2022-07-04T08:50:26;27.80;94.40
2663;DHT22;49701;48.072;7.800;2022-07-04T08:53:11;28.00;94.20
2663;DHT22;49701;48.072;7.800;2022-07-04T08:55:41;28.20;94.00
2663;DHT22;49701;48.072;7.800;2022-07-04T08:58:26;28.60;93.30
2663;DHT22;49701;48.072;7.800;2022-07-04T09:00:53;28.70;93.00
2663;DHT22;49701;48.072;7.800;2022-07-04T09:03:20;28.90;92.60
2663;DHT22;49701;48.072;7.800;2022-07-04T09:05:47;29.20;92.20
2663;DHT22;49701;48.072;7.800;2022-07-04T09:08:12;29.50;91.60
2663;DHT22;49701;48.072;7.800;2022-07-04T09:10:38;29.70;91.30
2663;DHT22;49701;48.072;7.800;2022-07-04T09:13:05;29.90;91.00
2663;DHT22;49701;48.072;7.800;2022-07-04T09:15:32;30.00;90.60
2663;DHT22;49701;48.072;7.800;2022-07-04T09:17:59;30.20;90.10
2663;DHT22;49701;48.072;7.800;2022-07-04T09:20:25;30.30;89.30
2663;DHT22;49701;48.072;7.800;2022-07-04T09:22:52;30.30;88.80
2663;DHT22;49701;48.072;7.800;2022-07-04T09:25:17;30.40;89.00
2663;DHT22;49701;48.072;7.800;2022-07-04T09:27:52;30.50;87.80
2663;DHT22;49701;48.072;7.800;2022-07-04T09:30:21;30.50;87.30
2663;DHT22;49701;48.072;7.800;2022-07-04T09:32:50;30.70;86.60
2663;DHT22;49701;48.072;7.800;2022-07-04T09:35:20;30.80;85.40
2663;DHT22;49701;48.072;7.800;2022-07-04T09:37:50;30.70;84.60
2663;DHT22;49701;48.072;7.800;2022-07-04T09:40:32;30.50;84.30
2663;DHT22;49701;48.072;7.800;2022-07-04T09:43:00;30.40;84.70
2663;DHT22;49701;48.072;7.800;2022-07-04T09:45:27;30.50;84.70
2663;DHT22;49701;48.072;7.800;2022-07-04T09:47:57;30.50;84.40
2663;DHT22;49701;48.072;7.800;2022-07-04T09:50:25;30.50;84.00
2663;DHT22;49701;48.072;7.800;2022-07-04T09:55:35;30.70;82.70
2663;DHT22;49701;48.072;7.800;2022-07-04T09:58:10;30.70;82.60
2663;DHT22;49701;48.072;7.800;2022-07-04T10:00:39;30.50;82.90
2663;DHT22;49701;48.072;7.800;2022-07-04T10:08:26;30.40;83.80
2663;DHT22;49701;48.072;7.800;2022-07-04T10:10:56;30.50;83.70
2663;DHT22;49701;48.072;7.800;2022-07-04T10:13:23;30.70;82.50
2663;DHT22;49701;48.072;7.800;2022-07-04T10:15:49;30.80;81.80
2663;DHT22;49701;48.072;7.800;2022-07-04T10:18:21;31.10;81.00
2663;DHT22;49701;48.072;7.800;2022-07-04T10:20:47;31.30;80.10
2663;DHT22;49701;48.072;7.800;2022-07-04T10:23:15;31.70;78.60
2663;DHT22;49701;48.072;7.800;2022-07-04T10:25:41;31.80;78.60
2663;DHT22;49701;48.072;7.800;2022-07-04T10:28:08;31.90;78.00
2663;DHT22;49701;48.072;7.800;2022-07-04T10:30:35;31.90;77.90
2663;DHT22;49701;48.072;7.800;2022-07-04T10:33:06;32.00;77.50
2663;DHT22;49701;48.072;7.800;2022-07-04T10:36:03;32.10;77.20
2663;DHT22;49701;48.072;7.800;2022-07-04T10:38:35;32.20;76.80
2663;DHT22;49701;48.072;7.800;2022-07-04T10:41:11;32.40;76.10
2663;DHT22;49701;48.072;7.800;2022-07-04T10:43:39;32.50;75.20
2663;DHT22;49701;48.072;7.800;2022-07-04T10:48:55;32.70;74.50
2663;DHT22;49701;48.072;7.800;2022-07-04T10:51:42;32.70;74.60
2663;DHT22;49701;48.072;7.800;2022-07-04T10:56:54;33.20;73.20
2663;DHT22;49701;48.072;7.800;2022-07-04T10:59:29;33.40;72.30
2663;DHT22;49701;48.072;7.800;2022-07-04T11:04:54;33.70;70.80
2663;DHT22;49701;48.072;7.800;2022-07-04T11:17:51;34.80;67.00
2663;DHT22;49701;48.072;7.800;2022-07-04T11:20:18;35.10;66.00
2663;DHT22;49701;48.072;7.800;2022-07-04T11:22:44;35.20;65.00
2663;DHT22;49701;48.072;7.800;2022-07-04T11:25:13;35.10;65.00
2663;DHT22;49701;48.072;7.800;2022-07-04T11:27:40;34.90;65.00
2663;DHT22;49701;48.072;7.800;2022-07-04T11:30:07;34.50;65.40
2663;DHT22;49701;48.072;7.800;2022-07-04T11:32:35;34.30;65.40
2663;DHT22;49701;48.072;7.800;2022-07-04T11:35:01;34.20;66.30
2663;DHT22;49701;48.072;7.800;2022-07-04T11:37:28;34.10;65.30
2663;DHT22;49701;48.072;7.800;2022-07-04T11:39:54;34.20;65.10
2663;DHT22;49701;48.072;7.800;2022-07-04T11:42:39;34.40;64.40
2663;DHT22;49701;48.072;7.800;2022-07-04T11:45:24;34.50;63.00
2663;DHT22;49701;48.072;7.800;2022-07-04T11:47:50;34.70;62.70
2663;DHT22;49701;48.072;7.800;2022-07-04T11:50:17;34.90;62.80
2663;DHT22;49701;48.072;7.800;2022-07-04T11:52:48;35.10;61.80
2663;DHT22;49701;48.072;7.800;2022-07-04T11:55:17;35.10;61.30
2663;DHT22;49701;48.072;7.800;2022-07-04T11:57:47;34.90;61.60
2663;DHT22;49701;48.072;7.800;2022-07-04T12:00:19;34.60;61.80
2663;DHT22;49701;48.072;7.800;2022-07-04T12:02:49;34.60;62.40
2663;DHT22;49701;48.072;7.800;2022-07-04T12:05:16;34.60;62.60
2663;DHT22;49701;48.072;7.800;2022-07-04T12:07:44;34.50;62.30
2663;DHT22;49701;48.072;7.800;2022-07-04T12:10:13;34.40;62.40
2663;DHT22;49701;48.072;7.800;2022-07-04T12:12:56;34.20;64.10
2663;DHT22;49701;48.072;7.800;2022-07-04T12:15:23;33.80;64.50
2663;DHT22;49701;48.072;7.800;2022-07-04T12:17:54;33.40;65.00
2663;DHT22;49701;48.072;7.800;2022-07-04T12:20:24;33.10;65.90
2663;DHT22;49701;48.072;7.800;2022-07-04T12:27:57;32.30;67.40
2663;DHT22;49701;48.072;7.800;2022-07-04T12:30:25;32.10;68.40
2663;DHT22;49701;48.072;7.800;2022-07-04T12:32:56;31.90;69.10
2663;DHT22;49701;48.072;7.800;2022-07-04T12:38:09;31.90;69.70
2663;DHT22;49701;48.072;7.800;2022-07-04T12:40:36;32.10;69.80
2663;DHT22;49701;48.072;7.800;2022-07-04T12:43:03;32.30;68.70
2663;DHT22;49701;48.072;7.800;2022-07-04T12:45:48;32.50;68.40
2663;DHT22;49701;48.072;7.800;2022-07-04T12:48:26;32.70;68.10
2663;DHT22;49701;48.072;7.800;2022-07-04T12:50:53;32.80;67.60
2663;DHT22;49701;48.072;7.800;2022-07-04T12:53:19;32.70;67.40
2663;DHT22;49701;48.072;7.800;2022-07-04T12:55:46;32.40;68.10
2663;DHT22;49701;48.072;7.800;2022-07-04T12:58:13;32.20;68.50
2663;DHT22;49701;48.072;7.800;2022-07-04T13:00:40;31.90;68.90
2663;DHT22;49701;48.072;7.800;2022-07-04T13:03:06;31.60;69.90
2663;DHT22;49701;48.072;7.800;2022-07-04T13:05:37;31.40;70.00
2663;DHT22;49701;48.072;7.800;2022-07-04T13:08:03;31.20;70.50
2663;DHT22;49701;48.072;7.800;2022-07-04T13:10:29;31.00;70.70
2663;DHT22;49701;48.072;7.800;2022-07-04T13:12:57;31.00;71.20
2663;DHT22;49701;48.072;7.800;2022-07-04T13:15:23;31.00;71.80
2663;DHT22;49701;48.072;7.800;2022-07-04T13:17:48;31.00;72.10
2663;DHT22;49701;48.072;7.800;2022-07-04T13:20:14;31.20;71.70
2663;DHT22;49701;48.072;7.800;2022-07-04T13:22:39;31.40;71.30
2663;DHT22;49701;48.072;7.800;2022-07-04T13:25:05;31.60;71.20
2663;DHT22;49701;48.072;7.800;2022-07-04T13:27:32;31.80;71.20
2663;DHT22;49701;48.072;7.800;2022-07-04T13:29:58;31.90;70.10
2663;DHT22;49701;48.072;7.800;2022-07-04T13:32:23;31.90;70.00
2663;DHT22;49701;48.072;7.800;2022-07-04T13:34:49;31.80;70.10
2663;DHT22;49701;48.072;7.800;2022-07-04T13:37:16;31.60;70.70
2663;DHT22;49701;48.072;7.800;2022-07-04T13:39:43;31.40;71.50
2663;DHT22;49701;48.072;7.800;2022-07-04T13:42:08;31.20;71.60
2663;DHT22;49701;48.072;7.800;2022-07-04T13:44:34;31.10;71.90
2663;DHT22;49701;48.072;7.800;2022-07-04T13:47:00;31.00;71.90
2663;DHT22;49701;48.072;7.800;2022-07-04T13:49:25;31.20;72.10
2663;DHT22;49701;48.072;7.800;2022-07-04T13:51:51;31.20;71.50
2663;DHT22;49701;48.072;7.800;2022-07-04T13:54:17;31.30;71.40
2663;DHT22;49701;48.072;7.800;2022-07-04T13:56:43;31.40;71.10
2663;DHT22;49701;48.072;7.800;2022-07-04T13:59:09;31.50;71.20
2663;DHT22;49701;48.072;7.800;2022-07-04T14:01:35;31.50;71.50
2663;DHT22;49701;48.072;7.800;2022-07-04T14:04:01;31.60;72.00
2663;DHT22;49701;48.072;7.800;2022-07-04T14:06:26;31.70;72.00
2663;DHT22;49701;48.072;7.800;2022-07-04T14:08:52;31.80;72.30
2663;DHT22;49701;48.072;7.800;2022-07-04T14:11:18;31.90;72.10
2663;DHT22;49701;48.072;7.800;2022-07-04T14:13:43;31.90;72.10
2663;DHT22;49701;48.072;7.800;2022-07-04T14:16:09;31.90;72.70
2663;DHT22;49701;48.072;7.800;2022-07-04T14:18:35;32.00;71.60
2663;DHT22;49701;48.072;7.800;2022-07-04T14:21:01;31.90;70.30
2663;DHT22;49701;48.072;7.800;2022-07-04T14:23:26;31.90;70.00
2663;DHT22;49701;48.072;7.800;2022-07-04T14:26:13;31.80;69.60
2663;DHT22;49701;48.072;7.800;2022-07-04T14:28:39;31.80;70.00
2663;DHT22;49701;48.072;7.800;2022-07-04T14:31:05;31.90;69.60
2663;DHT22;49701;48.072;7.800;2022-07-04T14:33:31;32.20;69.10
2663;DHT22;49701;48.072;7.800;2022-07-04T14:35:58;32.30;68.30
2663;DHT22;49701;48.072;7.800;2022-07-04T14:38:24;32.40;68.50
2663;DHT22;49701;48.072;7.800;2022-07-04T14:40:49;32.20;68.50
2663;DHT22;49701;48.072;7.800;2022-07-04T14:43:16;32.10;68.50
2663;DHT22;49701;48.072;7.800;2022-07-04T14:45:45;31.80;69.00
2663;DHT22;49701;48.072;7.800;2022-07-04T14:48:12;31.60;69.40
2663;DHT22;49701;48.072;7.800;2022-07-04T14:50:37;31.50;69.80
2663;DHT22;49701;48.072;7.800;2022-07-04T14:53:03;31.40;70.20
2663;DHT22;49701;48.072;7.800;2022-07-04T14:55:28;31.20;70.70
2663;DHT22;49701;48.072;7.800;2022-07-04T14:57:54;31.10;71.00
2663;DHT22;49701;48.072;7.800;2022-07-04T15:00:19;31.00;71.50
2663;DHT22;49701;48.072;7.800;2022-07-04T15:02:45;30.90;72.10
2663;DHT22;49701;48.072;7.800;2022-07-04T15:05:12;30.70;72.70
2663;DHT22;49701;48.072;7.800;2022-07-04T15:07:38;30.60;73.10
2663;DHT22;49701;48.072;7.800;2022-07-04T15:10:05;30.50;73.30
2663;DHT22;49701;48.072;7.800;2022-07-04T15:12:33;30.40;73.40
2663;DHT22;49701;48.072;7.800;2022-07-04T15:14:59;30.30;73.70
2663;DHT22;49701;48.072;7.800;2022-07-04T15:17:24;30.20;74.40
2663;DHT22;49701;48.072;7.800;2022-07-04T15:19:50;30.10;74.70
2663;DHT22;49701;48.072;7.800;2022-07-04T15:22:34;30.00;74.90
2663;DHT22;49701;48.072;7.800;2022-07-04T15:25:18;30.00;75.50
2663;DHT22;49701;48.072;7.800;2022-07-04T15:27:44;29.80;76.00
2663;DHT22;49701;48.072;7.800;2022-07-04T15:30:10;29.70;76.40
2663;DHT22;49701;48.072;7.800;2022-07-04T15:32:36;29.70;77.10
2663;DHT22;49701;48.072;7.800;2022-07-04T15:35:01;29.60;77.70
2663;DHT22;49701;48.072;7.800;2022-07-04T15:37:27;29.50;78.50
2663;DHT22;49701;48.072;7.800;2022-07-04T15:39:52;29.30;79.50
2663;DHT22;49701;48.072;7.800;2022-07-04T15:42:18;29.20;80.70
2663;DHT22;49701;48.072;7.800;2022-07-04T15:44:43;29.10;81.00
2663;DHT22;49701;48.072;7.800;2022-07-04T15:47:09;29.10;81.80
2663;DHT22;49701;48.072;7.800;2022-07-04T15:49:36;28.90;81.40
2663;DHT22;49701;48.072;7.800;2022-07-04T15:52:04;28.80;81.90
2663;DHT22;49701;48.072;7.800;2022-07-04T15:54:31;28.70;82.40
2663;DHT22;49701;48.072;7.800;2022-07-04T15:56:57;28.70;82.20
2663;DHT22;49701;48.072;7.800;2022-07-04T15:59:23;28.60;82.20
2663;DHT22;49701;48.072;7.800;2022-07-04T16:01:49;28.50;81.80
2663;DHT22;49701;48.072;7.800;2022-07-04T16:04:14;28.50;81.80
2663;DHT22;49701;48.072;7.800;2022-07-04T16:06:40;28.40;81.90
2663;DHT22;49701;48.072;7.800;2022-07-04T16:09:06;28.30;82.10
2663;DHT22;49701;48.072;7.800;2022-07-04T16:11:32;28.30;82.50
2663;DHT22;49701;48.072;7.800;2022-07-04T16:13:58;28.20;82.90
2663;DHT22;49701;48.072;7.800;2022-07-04T16:16:24;28.20;83.20
2663;DHT22;49701;48.072;7.800;2022-07-04T16:18:50;28.10;83.70